sensor_id;sensor_type;location;lat;lon;timestamp;pressure;altitude;pressure_sealevel;temperature;humidity
11648;BME280;5880;52.342;9.662;2022-09-03T00:01:12;100967.84;;;22.12;30.51
11648;BME280;5880;52.342;9.662;2022-09-03T00:03:51;100964.63;;;22.05;30.51
11648;BME280;5880;52.342;9.662;2022-09-03T00:06:25;100966.13;;;21.97;30.82
11648;BME280;5880;52.342;9.662;2022-09-03T00:14:39;100948.38;;;21.74;30.98
11648;BME280;5880;52.342;9.662;2022-09-03T00:17:17;100947.63;;;21.68;30.99
11648;BME280;5880;52.342;9.662;2022-09-03T00:20:03;100966.03;;;21.64;30.92
11648;BME280;5880;52.342;9.662;2022-09-03T00:22:41;100948.88;;;21.57;30.97
11648;BME280;5880;52.342;9.662;2022-09-03T00:25:14;100945.09;;;21.48;31.18
11648;BME280;5880;52.342;9.662;2022-09-03T00:27:44;100943.47;;;21.47;31.32
11648;BME280;5880;52.342;9.662;2022-09-03T00:33:06;100923.34;;;21.31;31.30
11648;BME280;5880;52.342;9.662;2022-09-03T00:35:45;100939.69;;;21.33;31.41
11648;BME280;5880;52.342;9.662;2022-09-03T00:38:13;100940.59;;;21.28;31.66
11648;BME280;5880;52.342;9.662;2022-09-03T00:41:07;100935.34;;;21.26;31.81
11648;BME280;5880;52.342;9.662;2022-09-03T00:46:25;100934.00;;;21.24;32.18
11648;BME280;5880;52.342;9.662;2022-09-03T00:52:47;100923.16;;;21.22;32.22
11648;BME280;5880;52.342;9.662;2022-09-03T00:55:32;100935.56;;;21.30;32.55
11648;BME280;5880;52.342;9.662;2022-09-03T00:58:53;100938.06;;;21.32;32.65
11648;BME280;5880;52.342;9.662;2022-09-03T01:01:54;100929.19;;;21.29;32.77
11648;BME280;5880;52.342;9.662;2022-09-03T01:07:46;100929.47;;;21.28;33.05
11648;BME280;5880;52.342;9.662;2022-09-03T01:10:58;100925.34;;;21.25;32.80
11648;BME280;5880;52.342;9.662;2022-09-03T01:13:36;100931.22;;;21.24;32.99
11648;BME280;5880;52.342;9.662;2022-09-03T01:16:27;100930.34;;;21.23;33.04
11648;BME280;5880;52.342;9.662;2022-09-03T01:19:06;100928.97;;;21.26;33.40
11648;BME280;5880;52.342;9.662;2022-09-03T01:22:42;100929.47;;;21.28;33.18
11648;BME280;5880;52.342;9.662;2022-09-03T01:25:51;100935.03;;;21.28;33.20
11648;BME280;5880;52.342;9.662;2022-09-03T01:28:55;100928.44;;;21.24;33.22
11648;BME280;5880;52.342;9.662;2022-09-03T01:31:38;100924.66;;;21.15;33.83
11648;BME280;5880;52.342;9.662;2022-09-03T01:35:06;100924.41;;;21.11;33.56
11648;BME280;5880;52.342;9.662;2022-09-03T01:38:11;100938.28;;;21.11;33.71
11648;BME280;5880;52.342;9.662;2022-09-03T01:46:51;100934.94;;;21.14;33.57
11648;BME280;5880;52.342;9.662;2022-09-03T01:49:27;100935.97;;;21.18;33.79
11648;BME280;5880;52.342;9.662;2022-09-03T01:52:18;100940.72;;;21.18;33.86
11648;BME280;5880;52.342;9.662;2022-09-03T01:55:08;100934.63;;;21.16;33.72
11648;BME280;5880;52.342;9.662;2022-09-03T01:58:06;100931.31;;;21.14;33.51
11648;BME280;5880;52.342;9.662;2022-09-03T02:00:40;100941.53;;;21.18;33.76
11648;BME280;5880;52.342;9.662;2022-09-03T02:03:10;100938.19;;;21.21;33.60
11648;BME280;5880;52.342;9.662;2022-09-03T02:05:37;100937.88;;;21.23;33.50
11648;BME280;5880;52.342;9.662;2022-09-03T02:08:09;100928.19;;;21.20;33.79
11648;BME280;5880;52.342;9.662;2022-09-03T02:10:50;100939.22;;;21.25;33.78
11648;BME280;5880;52.342;9.662;2022-09-03T02:13:31;100936.81;;;21.19;33.55
11648;BME280;5880;52.342;9.662;2022-09-03T02:16:10;100930.75;;;21.17;33.86
11648;BME280;5880;52.342;9.662;2022-09-03T02:18:44;100938.00;;;21.13;33.66
11648;BME280;5880;52.342;9.662;2022-09-03T02:21:17;100937.19;;;21.12;34.05
11648;BME280;5880;52.342;9.662;2022-09-03T02:23:45;100938.06;;;21.07;33.79
11648;BME280;5880;52.342;9.662;2022-09-03T02:26:16;100942.50;;;21.08;34.17
11648;BME280;5880;52.342;9.662;2022-09-03T02:28:43;100926.53;;;20.95;34.06
11648;BME280;5880;52.342;9.662;2022-09-03T02:31:09;100942.84;;;21.02;33.99
11648;BME280;5880;52.342;9.662;2022-09-03T02:33:41;100936.47;;;21.01;34.16
11648;BME280;5880;52.342;9.662;2022-09-03T02:36:12;100935.31;;;21.02;33.94
11648;BME280;5880;52.342;9.662;2022-09-03T02:38:41;100930.03;;;21.06;34.07
11648;BME280;5880;52.342;9.662;2022-09-03T02:41:07;100925.59;;;21.05;33.85
11648;BME280;5880;52.342;9.662;2022-09-03T02:43:48;100927.78;;;21.08;34.11
11648;BME280;5880;52.342;9.662;2022-09-03T02:46:35;100926.16;;;21.02;33.73
11648;BME280;5880;52.342;9.662;2022-09-03T02:49:03;100933.69;;;21.01;33.93
11648;BME280;5880;52.342;9.662;2022-09-03T02:51:38;100927.31;;;21.01;33.99
11648;BME280;5880;52.342;9.662;2022-09-03T02:54:05;100931.78;;;20.97;34.20
11648;BME280;5880;52.342;9.662;2022-09-03T02:56:31;100940.88;;;21.02;34.29
11648;BME280;5880;52.342;9.662;2022-09-03T02:58:56;100935.09;;;20.99;33.95
11648;BME280;5880;52.342;9.662;2022-09-03T03:01:23;100944.19;;;21.04;34.16
11648;BME280;5880;52.342;9.662;2022-09-03T03:03:49;100940.38;;;21.00;34.02
11648;BME280;5880;52.342;9.662;2022-09-03T03:06:15;100934.28;;;20.98;34.09
11648;BME280;5880;52.342;9.662;2022-09-03T03:08:40;100939.84;;;20.98;33.97
11648;BME280;5880;52.342;9.662;2022-09-03T03:11:06;100939.03;;;20.98;34.06
11648;BME280;5880;52.342;9.662;2022-09-03T03:13:32;100942.91;;;20.97;34.26
11648;BME280;5880;52.342;9.662;2022-09-03T03:16:04;100935.38;;;20.97;34.48
11648;BME280;5880;52.342;9.662;2022-09-03T03:18:31;100924.88;;;20.94;34.42
11648;BME280;5880;52.342;9.662;2022-09-03T03:21:04;100928.19;;;20.96;34.16
11648;BME280;5880;52.342;9.662;2022-09-03T03:23:32;100929.00;;;20.97;34.20
11648;BME280;5880;52.342;9.662;2022-09-03T03:26:10;100930.97;;;20.96;34.34
11648;BME280;5880;52.342;9.662;2022-09-03T03:28:36;100937.63;;;20.95;34.24
11648;BME280;5880;52.342;9.662;2022-09-03T03:31:22;100928.47;;;20.95;34.31
11648;BME280;5880;52.342;9.662;2022-09-03T03:33:53;100927.66;;;20.94;34.25
11648;BME280;5880;52.342;9.662;2022-09-03T03:36:21;100933.22;;;20.94;34.07
11648;BME280;5880;52.342;9.662;2022-09-03T03:38:48;100932.06;;;20.95;34.49
11648;BME280;5880;52.342;9.662;2022-09-03T03:41:17;100932.06;;;20.95;34.55
11648;BME280;5880;52.342;9.662;2022-09-03T03:43:44;100929.59;;;20.94;34.22
11648;BME280;5880;52.342;9.662;2022-09-03T03:46:10;100932.38;;;20.94;34.53
11648;BME280;5880;52.342;9.662;2022-09-03T03:48:37;100935.44;;;20.92;34.17
11648;BME280;5880;52.342;9.662;2022-09-03T03:51:06;100938.47;;;20.96;34.25
11648;BME280;5880;52.342;9.662;2022-09-03T03:53:35;100935.69;;;20.96;34.56
11648;BME280;5880;52.342;9.662;2022-09-03T03:56:05;100924.63;;;20.91;34.49
11648;BME280;5880;52.342;9.662;2022-09-03T03:58:32;100925.47;;;20.91;34.62
11648;BME280;5880;52.342;9.662;2022-09-03T04:01:31;100923.81;;;20.90;34.52
11648;BME280;5880;52.342;9.662;2022-09-03T04:03:58;100918.91;;;20.82;34.49
11648;BME280;5880;52.342;9.662;2022-09-03T04:06:25;100929.34;;;20.90;34.47
11648;BME280;5880;52.342;9.662;2022-09-03T04:08:51;100933.28;;;20.89;34.54
11648;BME280;5880;52.342;9.662;2022-09-03T04:11:20;100924.16;;;20.83;34.74
11648;BME280;5880;52.342;9.662;2022-09-03T04:13:49;100932.47;;;20.83;34.53
11648;BME280;5880;52.342;9.662;2022-09-03T04:16:25;100933.06;;;20.80;34.62
11648;BME280;5880;52.342;9.662;2022-09-03T04:18:53;100930.34;;;20.75;34.93
11648;BME280;5880;52.342;9.662;2022-09-03T04:21:23;100933.13;;;20.75;34.75
11648;BME280;5880;52.342;9.662;2022-09-03T04:23:51;100932.59;;;20.73;34.75
11648;BME280;5880;52.342;9.662;2022-09-03T04:26:25;100934.28;;;20.69;35.00
11648;BME280;5880;52.342;9.662;2022-09-03T04:28:51;100926.56;;;20.66;34.79
11648;BME280;5880;52.342;9.662;2022-09-03T04:31:19;100929.56;;;20.70;35.03
11648;BME280;5880;52.342;9.662;2022-09-03T04:33:45;100923.84;;;20.61;34.94
11648;BME280;5880;52.342;9.662;2022-09-03T04:36:15;100929.06;;;20.62;34.88
11648;BME280;5880;52.342;9.662;2022-09-03T04:38:43;100927.72;;;20.60;34.74
11648;BME280;5880;52.342;9.662;2022-09-03T04:41:12;100929.66;;;20.59;35.21
11648;BME280;5880;52.342;9.662;2022-09-03T04:43:39;100929.66;;;20.59;34.90
11648;BME280;5880;52.342;9.662;2022-09-03T04:46:10;100931.03;;;20.62;34.95
11648;BME280;5880;52.342;9.662;2022-09-03T04:48:36;100938.81;;;20.60;35.03
11648;BME280;5880;52.342;9.662;2022-09-03T04:51:08;100931.91;;;20.57;35.06
11648;BME280;5880;52.342;9.662;2022-09-03T04:53:38;100938.81;;;20.60;35.20
11648;BME280;5880;52.342;9.662;2022-09-03T04:56:16;100933.59;;;20.58;34.99
11648;BME280;5880;52.342;9.662;2022-09-03T04:58:43;100945.53;;;20.54;35.22
11648;BME280;5880;52.342;9.662;2022-09-03T05:01:18;100943.03;;;20.52;35.32
11648;BME280;5880;52.342;9.662;2022-09-03T05:03:44;100935.56;;;20.48;35.33
11648;BME280;5880;52.342;9.662;2022-09-03T05:06:10;100926.16;;;20.43;35.39
11648;BME280;5880;52.342;9.662;2022-09-03T05:08:37;100938.41;;;20.42;35.59
11648;BME280;5880;52.342;9.662;2022-09-03T05:11:06;100941.72;;;20.44;35.52
11648;BME280;5880;52.342;9.662;2022-09-03T05:13:34;100940.03;;;20.43;35.31
11648;BME280;5880;52.342;9.662;2022-09-03T05:16:03;100938.13;;;20.44;35.35
11648;BME280;5880;52.342;9.662;2022-09-03T05:18:31;100924.56;;;20.37;35.63
11648;BME280;5880;52.342;9.662;2022-09-03T05:21:02;100928.13;;;20.43;35.72
11648;BME280;5880;52.342;9.662;2022-09-03T05:23:29;100933.41;;;20.44;35.43
11648;BME280;5880;52.342;9.662;2022-09-03T05:26:02;100933.63;;;20.48;35.58
11648;BME280;5880;52.342;9.662;2022-09-03T05:28:36;100937.75;;;20.51;35.68
11648;BME280;5880;52.342;9.662;2022-09-03T05:31:07;100935.53;;;20.53;35.74
11648;BME280;5880;52.342;9.662;2022-09-03T05:33:41;100924.97;;;20.55;35.36
11648;BME280;5880;52.342;9.662;2022-09-03T05:36:10;100936.63;;;20.57;35.49
11648;BME280;5880;52.342;9.662;2022-09-03T05:38:36;100931.63;;;20.59;35.87
11648;BME280;5880;52.342;9.662;2022-09-03T05:41:07;100931.34;;;20.60;35.75
11648;BME280;5880;52.342;9.662;2022-09-03T05:43:33;100932.16;;;20.61;35.58
11648;BME280;5880;52.342;9.662;2022-09-03T05:46:12;100928.19;;;20.67;35.97
11648;BME280;5880;52.342;9.662;2022-09-03T05:48:40;100930.16;;;20.66;35.77
11648;BME280;5880;52.342;9.662;2022-09-03T05:51:16;100923.19;;;20.69;35.92
11648;BME280;5880;52.342;9.662;2022-09-03T05:53:45;100933.75;;;20.67;35.83
11648;BME280;5880;52.342;9.662;2022-09-03T05:56:15;100925.72;;;20.65;35.92
11648;BME280;5880;52.342;9.662;2022-09-03T05:58:45;100927.97;;;20.63;35.78
11648;BME280;5880;52.342;9.662;2022-09-03T06:01:21;100929.94;;;20.63;36.17
11648;BME280;5880;52.342;9.662;2022-09-03T06:03:57;100926.59;;;20.61;36.08
11648;BME280;5880;52.342;9.662;2022-09-03T06:06:25;100930.22;;;20.61;36.17
11648;BME280;5880;52.342;9.662;2022-09-03T06:08:54;100927.16;;;20.63;36.17
11648;BME280;5880;52.342;9.662;2022-09-03T06:11:21;100931.34;;;20.60;36.43
11648;BME280;5880;52.342;9.662;2022-09-03T06:13:47;100924.66;;;20.61;36.30
11648;BME280;5880;52.342;9.662;2022-09-03T06:16:13;100940.38;;;20.71;36.51
11648;BME280;5880;52.342;9.662;2022-09-03T06:18:40;100936.72;;;20.76;36.20
11648;BME280;5880;52.342;9.662;2022-09-03T06:21:06;100934.44;;;20.83;36.46
11648;BME280;5880;52.342;9.662;2022-09-03T06:23:34;100939.66;;;20.90;36.36
11648;BME280;5880;52.342;9.662;2022-09-03T06:26:06;100937.06;;;20.98;36.39
11648;BME280;5880;52.342;9.662;2022-09-03T06:28:34;100927.50;;;21.10;36.69
11648;BME280;5880;52.342;9.662;2022-09-03T06:31:03;100936.53;;;21.20;36.55
11648;BME280;5880;52.342;9.662;2022-09-03T06:33:31;100938.13;;;21.26;36.49
11648;BME280;5880;52.342;9.662;2022-09-03T06:35:59;100940.56;;;21.33;36.29
11648;BME280;5880;52.342;9.662;2022-09-03T06:38:30;100933.56;;;21.36;36.28
11648;BME280;5880;52.342;9.662;2022-09-03T06:41:02;100928.00;;;21.36;36.40
11648;BME280;5880;52.342;9.662;2022-09-03T06:43:41;100942.41;;;21.43;36.14
11648;BME280;5880;52.342;9.662;2022-09-03T06:46:11;100944.88;;;21.44;36.44
11648;BME280;5880;52.342;9.662;2022-09-03T06:48:38;100943.75;;;21.45;36.16
11648;BME280;5880;52.342;9.662;2022-09-03T06:51:14;100941.72;;;21.51;36.13
11648;BME280;5880;52.342;9.662;2022-09-03T06:53:47;100939.47;;;21.53;36.40
11648;BME280;5880;52.342;9.662;2022-09-03T06:56:20;100938.38;;;21.54;36.39
11648;BME280;5880;52.342;9.662;2022-09-03T06:58:56;100925.84;;;21.52;36.25
11648;BME280;5880;52.342;9.662;2022-09-03T07:01:28;100943.25;;;21.62;36.33
11648;BME280;5880;52.342;9.662;2022-09-03T07:04:03;100940.72;;;21.66;36.18
11648;BME280;5880;52.342;9.662;2022-09-03T07:06:36;100936.56;;;21.63;36.45
11648;BME280;5880;52.342;9.662;2022-09-03T07:09:04;100945.38;;;21.70;36.35
11648;BME280;5880;52.342;9.662;2022-09-03T07:11:30;100940.84;;;21.75;36.40
11648;BME280;5880;52.342;9.662;2022-09-03T07:13:58;100942.72;;;21.79;36.48
11648;BME280;5880;52.342;9.662;2022-09-03T07:16:33;100940.19;;;21.83;36.36
11648;BME280;5880;52.342;9.662;2022-09-03T07:19:00;100938.22;;;21.83;36.33
11648;BME280;5880;52.342;9.662;2022-09-03T07:21:31;100929.88;;;21.83;36.53
11648;BME280;5880;52.342;9.662;2022-09-03T07:23:58;100943.94;;;21.92;36.28
11648;BME280;5880;52.342;9.662;2022-09-03T07:26:28;100937.47;;;21.97;36.33
11648;BME280;5880;52.342;9.662;2022-09-03T07:28:55;100939.66;;;22.00;36.34
11648;BME280;5880;52.342;9.662;2022-09-03T07:31:28;100942.34;;;22.05;36.43
11648;BME280;5880;52.342;9.662;2022-09-03T07:33:59;100933.09;;;22.09;36.58
11648;BME280;5880;52.342;9.662;2022-09-03T07:36:28;100940.78;;;22.18;36.44
11648;BME280;5880;52.342;9.662;2022-09-03T07:38:57;100938.47;;;22.25;36.33
11648;BME280;5880;52.342;9.662;2022-09-03T07:41:25;100932.19;;;22.33;36.49
11648;BME280;5880;52.342;9.662;2022-09-03T07:43:52;100939.63;;;22.38;36.40
11648;BME280;5880;52.342;9.662;2022-09-03T07:46:24;100928.94;;;22.45;36.46
11648;BME280;5880;52.342;9.662;2022-09-03T07:48:52;100931.13;;;22.48;36.35
11648;BME280;5880;52.342;9.662;2022-09-03T07:51:21;100936.88;;;22.51;36.19
11648;BME280;5880;52.342;9.662;2022-09-03T07:53:53;100921.63;;;22.49;36.18
11648;BME280;5880;52.342;9.662;2022-09-03T07:56:20;100924.53;;;22.58;36.05
11648;BME280;5880;52.342;9.662;2022-09-03T07:58:46;100928.66;;;22.60;36.24
11648;BME280;5880;52.342;9.662;2022-09-03T08:01:19;100926.94;;;22.64;36.29
11648;BME280;5880;52.342;9.662;2022-09-03T08:03:49;100930.53;;;22.65;36.16
11648;BME280;5880;52.342;9.662;2022-09-03T08:06:19;100937.34;;;22.72;36.07
11648;BME280;5880;52.342;9.662;2022-09-03T08:08:45;100931.50;;;22.74;36.11
11648;BME280;5880;52.342;9.662;2022-09-03T08:11:14;100937.16;;;22.83;36.20
11648;BME280;5880;52.342;9.662;2022-09-03T08:13:44;100930.88;;;22.91;36.06
11648;BME280;5880;52.342;9.662;2022-09-03T08:16:11;100942.44;;;22.98;36.19
11648;BME280;5880;52.342;9.662;2022-09-03T08:18:38;100934.53;;;23.05;36.26
11648;BME280;5880;52.342;9.662;2022-09-03T08:21:11;100940.53;;;23.12;36.00
11648;BME280;5880;52.342;9.662;2022-09-03T08:23:45;100941.56;;;23.16;35.99
11648;BME280;5880;52.342;9.662;2022-09-03T08:26:13;100940.13;;;23.19;35.89
11648;BME280;5880;52.342;9.662;2022-09-03T08:28:40;100945.47;;;23.29;35.93
11648;BME280;5880;52.342;9.662;2022-09-03T08:31:14;100945.06;;;23.36;36.02
11648;BME280;5880;52.342;9.662;2022-09-03T08:33:44;100946.09;;;23.40;35.67
11648;BME280;5880;52.342;9.662;2022-09-03T08:38:41;100960.25;;;23.44;35.40
11648;BME280;5880;52.342;9.662;2022-09-03T08:41:14;100949.28;;;23.47;35.30
11648;BME280;5880;52.342;9.662;2022-09-03T08:44:05;100949.00;;;23.49;35.37
11648;BME280;5880;52.342;9.662;2022-09-03T08:46:50;100951.16;;;23.52;35.51
11648;BME280;5880;52.342;9.662;2022-09-03T08:49:26;100945.56;;;23.52;35.32
11648;BME280;5880;52.342;9.662;2022-09-03T08:51:57;100943.31;;;23.54;35.26
11648;BME280;5880;52.342;9.662;2022-09-03T08:54:30;100941.22;;;23.59;35.23
11648;BME280;5880;52.342;9.662;2022-09-03T08:57:01;100952.59;;;23.63;35.40
11648;BME280;5880;52.342;9.662;2022-09-03T08:59:30;100939.75;;;23.62;34.98
11648;BME280;5880;52.342;9.662;2022-09-03T09:02:28;100938.22;;;23.70;35.03
11648;BME280;5880;52.342;9.662;2022-09-03T09:05:18;100940.38;;;23.73;34.98
11648;BME280;5880;52.342;9.662;2022-09-03T09:10:53;100937.38;;;23.83;34.88
11648;BME280;5880;52.342;9.662;2022-09-03T09:13:35;100943.34;;;23.90;34.81
11648;BME280;5880;52.342;9.662;2022-09-03T09:16:30;100938.16;;;23.97;35.13
11648;BME280;5880;52.342;9.662;2022-09-03T09:19:30;100934.31;;;24.07;34.92
11648;BME280;5880;52.342;9.662;2022-09-03T09:22:06;100933.38;;;24.12;35.20
11648;BME280;5880;52.342;9.662;2022-09-03T09:24:43;100925.88;;;24.21;35.29
11648;BME280;5880;52.342;9.662;2022-09-03T09:27:14;100907.47;;;24.20;34.85
11648;BME280;5880;52.342;9.662;2022-09-03T09:29:45;100910.84;;;24.31;34.69
11648;BME280;5880;52.342;9.662;2022-09-03T09:32:15;100917.41;;;24.35;34.47
11648;BME280;5880;52.342;9.662;2022-09-03T09:34:42;100907.59;;;24.37;34.59
11648;BME280;5880;52.342;9.662;2022-09-03T09:37:14;100913.44;;;24.50;34.54
11648;BME280;5880;52.342;9.662;2022-09-03T09:39:54;100905.56;;;24.52;33.97
11648;BME280;5880;52.342;9.662;2022-09-03T09:42:22;100908.09;;;24.62;33.86
11648;BME280;5880;52.342;9.662;2022-09-03T09:44:48;100897.59;;;24.68;33.84
11648;BME280;5880;52.342;9.662;2022-09-03T09:47:29;100901.59;;;24.75;33.77
11648;BME280;5880;52.342;9.662;2022-09-03T09:50:00;100895.66;;;24.77;33.49
11648;BME280;5880;52.342;9.662;2022-09-03T09:52:28;100889.00;;;24.87;33.41
11648;BME280;5880;52.342;9.662;2022-09-03T09:55:16;100894.94;;;24.94;33.46
11648;BME280;5880;52.342;9.662;2022-09-03T09:57:43;100891.19;;;24.98;32.92
11648;BME280;5880;52.342;9.662;2022-09-03T10:00:16;100881.47;;;25.04;32.54
11648;BME280;5880;52.342;9.662;2022-09-03T10:02:50;100883.50;;;25.13;32.59
11648;BME280;5880;52.342;9.662;2022-09-03T10:05:31;100884.19;;;25.18;32.73
11648;BME280;5880;52.342;9.662;2022-09-03T10:08:18;100888.97;;;25.26;32.31
11648;BME280;5880;52.342;9.662;2022-09-03T10:10:49;100884.22;;;25.27;32.49
11648;BME280;5880;52.342;9.662;2022-09-03T10:13:20;100883.88;;;25.37;32.07
11648;BME280;5880;52.342;9.662;2022-09-03T10:21:44;100865.81;;;25.61;31.70
11648;BME280;5880;52.342;9.662;2022-09-03T10:25:01;100875.19;;;25.82;31.52
11648;BME280;5880;52.342;9.662;2022-09-03T10:27:26;100879.69;;;26.01;31.74
11648;BME280;5880;52.342;9.662;2022-09-03T10:29:53;100865.84;;;26.13;31.60
11648;BME280;5880;52.342;9.662;2022-09-03T10:35:36;100877.00;;;26.30;31.32
11648;BME280;5880;52.342;9.662;2022-09-03T10:38:25;100865.13;;;26.33;31.39
11648;BME280;5880;52.342;9.662;2022-09-03T10:47:02;100853.75;;;26.39;30.67
11648;BME280;5880;52.342;9.662;2022-09-03T10:58:42;100866.13;;;26.55;30.76
11648;BME280;5880;52.342;9.662;2022-09-03T11:01:58;100857.50;;;26.60;30.80
11648;BME280;5880;52.342;9.662;2022-09-03T11:05:07;100849.41;;;26.67;30.58
11648;BME280;5880;52.342;9.662;2022-09-03T11:07:52;100841.63;;;26.73;30.91
11648;BME280;5880;52.342;9.662;2022-09-03T11:10:29;100848.69;;;26.79;30.60
11648;BME280;5880;52.342;9.662;2022-09-03T11:13:40;100844.06;;;26.83;30.34
11648;BME280;5880;52.342;9.662;2022-09-03T11:16:29;100859.03;;;26.87;30.13
11648;BME280;5880;52.342;9.662;2022-09-03T11:19:08;100833.47;;;26.89;29.78
11648;BME280;5880;52.342;9.662;2022-09-03T11:21:38;100844.19;;;26.87;29.22
11648;BME280;5880;52.342;9.662;2022-09-03T11:24:18;100835.78;;;26.87;29.52
11648;BME280;5880;52.342;9.662;2022-09-03T11:27:00;100839.06;;;26.89;29.78
11648;BME280;5880;52.342;9.662;2022-09-03T11:29:56;100831.47;;;26.89;29.40
11648;BME280;5880;52.342;9.662;2022-09-03T11:32:54;100833.44;;;26.98;29.74
11648;BME280;5880;52.342;9.662;2022-09-03T11:38:03;100819.75;;;26.96;29.34
11648;BME280;5880;52.342;9.662;2022-09-03T11:40:38;100831.56;;;27.02;29.13
11648;BME280;5880;52.342;9.662;2022-09-03T11:43:23;100832.91;;;27.04;29.44
11648;BME280;5880;52.342;9.662;2022-09-03T11:48:48;100819.16;;;27.11;29.14
11648;BME280;5880;52.342;9.662;2022-09-03T11:51:31;100829.00;;;27.17;29.41
11648;BME280;5880;52.342;9.662;2022-09-03T11:54:04;100832.00;;;27.21;29.54
11648;BME280;5880;52.342;9.662;2022-09-03T11:56:33;100816.09;;;27.25;29.29
11648;BME280;5880;52.342;9.662;2022-09-03T12:01:51;100819.66;;;27.34;29.02
11648;BME280;5880;52.342;9.662;2022-09-03T12:04:50;100824.25;;;27.39;28.70
11648;BME280;5880;52.342;9.662;2022-09-03T12:07:32;100812.09;;;27.35;28.68
11648;BME280;5880;52.342;9.662;2022-09-03T12:10:37;100813.41;;;27.38;28.73
11648;BME280;5880;52.342;9.662;2022-09-03T12:13:28;100821.47;;;27.39;29.04
11648;BME280;5880;52.342;9.662;2022-09-03T12:16:37;100815.19;;;27.42;28.49
11648;BME280;5880;52.342;9.662;2022-09-03T12:22:11;100802.28;;;27.41;28.39
11648;BME280;5880;52.342;9.662;2022-09-03T12:24:38;100804.88;;;27.46;28.62
11648;BME280;5880;52.342;9.662;2022-09-03T12:27:04;100813.47;;;27.50;28.04
11648;BME280;5880;52.342;9.662;2022-09-03T12:29:31;100809.47;;;27.51;27.96
11648;BME280;5880;52.342;9.662;2022-09-03T12:32:10;100803.53;;;27.52;27.84
11648;BME280;5880;52.342;9.662;2022-09-03T12:34:37;100813.94;;;27.52;27.57
11648;BME280;5880;52.342;9.662;2022-09-03T12:37:19;100807.63;;;27.55;27.98
11648;BME280;5880;52.342;9.662;2022-09-03T12:39:54;100807.78;;;27.58;27.84
11648;BME280;5880;52.342;9.662;2022-09-03T12:42:30;100807.91;;;27.62;27.79
11648;BME280;5880;52.342;9.662;2022-09-03T12:45:07;100797.97;;;27.65;27.74
11648;BME280;5880;52.342;9.662;2022-09-03T12:47:39;100795.16;;;27.65;27.62
11648;BME280;5880;52.342;9.662;2022-09-03T12:50:12;100796.13;;;27.69;27.46
11648;BME280;5880;52.342;9.662;2022-09-03T12:52:52;100789.34;;;27.70;27.34
11648;BME280;5880;52.342;9.662;2022-09-03T12:55:37;100800.22;;;27.71;27.45
11648;BME280;5880;52.342;9.662;2022-09-03T12:58:17;100788.66;;;27.73;27.45
11648;BME280;5880;52.342;9.662;2022-09-03T13:01:26;100787.97;;;27.76;27.37
11648;BME280;5880;52.342;9.662;2022-09-03T13:04:14;100784.34;;;27.75;27.21
11648;BME280;5880;52.342;9.662;2022-09-03T13:07:20;100785.97;;;27.76;27.33
11648;BME280;5880;52.342;9.662;2022-09-03T13:09:48;100783.63;;;27.78;27.15
11648;BME280;5880;52.342;9.662;2022-09-03T13:12:33;100777.50;;;27.85;27.19
11648;BME280;5880;52.342;9.662;2022-09-03T13:15:07;100782.41;;;27.88;26.95
11648;BME280;5880;52.342;9.662;2022-09-03T13:20:43;100771.66;;;27.90;26.82
11648;BME280;5880;52.342;9.662;2022-09-03T13:24:21;100774.94;;;27.92;27.12
11648;BME280;5880;52.342;9.662;2022-09-03T13:29:28;100782.22;;;27.93;26.49
11648;BME280;5880;52.342;9.662;2022-09-03T13:35:36;100768.28;;;27.97;26.76
11648;BME280;5880;52.342;9.662;2022-09-03T13:38:34;100777.53;;;27.97;26.69
11648;BME280;5880;52.342;9.662;2022-09-03T13:41:36;100779.53;;;27.97;26.79
11648;BME280;5880;52.342;9.662;2022-09-03T13:44:44;100772.38;;;27.99;26.63
11648;BME280;5880;52.342;9.662;2022-09-03T13:47:35;100773.09;;;27.96;26.58
11648;BME280;5880;52.342;9.662;2022-09-03T13:50:27;100787.25;;;28.00;26.63
11648;BME280;5880;52.342;9.662;2022-09-03T13:53:03;100773.19;;;28.00;26.18
11648;BME280;5880;52.342;9.662;2022-09-03T13:55:41;100779.78;;;28.04;26.18
11648;BME280;5880;52.342;9.662;2022-09-03T13:58:43;100776.97;;;28.04;26.47
11648;BME280;5880;52.342;9.662;2022-09-03T14:01:26;100770.88;;;28.02;25.79
11648;BME280;5880;52.342;9.662;2022-09-03T14:04:02;100774.84;;;28.01;26.01
11648;BME280;5880;52.342;9.662;2022-09-03T14:06:43;100770.19;;;28.05;26.14
11648;BME280;5880;52.342;9.662;2022-09-03T14:09:40;100772.31;;;28.08;26.33
11648;BME280;5880;52.342;9.662;2022-09-03T14:12:36;100761.06;;;28.08;26.24
11648;BME280;5880;52.342;9.662;2022-09-03T14:15:22;100750.31;;;28.10;26.14
11648;BME280;5880;52.342;9.662;2022-09-03T14:18:12;100757.06;;;28.09;25.96
11648;BME280;5880;52.342;9.662;2022-09-03T14:21:01;100761.88;;;28.09;25.89
11648;BME280;5880;52.342;9.662;2022-09-03T14:23:46;100761.16;;;28.12;25.94
11648;BME280;5880;52.342;9.662;2022-09-03T14:26:26;100759.53;;;28.11;25.54
11648;BME280;5880;52.342;9.662;2022-09-03T14:29:07;100753.13;;;28.10;25.80
11648;BME280;5880;52.342;9.662;2022-09-03T14:32:10;100772.41;;;28.12;25.88
11648;BME280;5880;52.342;9.662;2022-09-03T14:38:18;100766.19;;;28.06;25.52
11648;BME280;5880;52.342;9.662;2022-09-03T14:41:25;100771.47;;;28.08;25.48
11648;BME280;5880;52.342;9.662;2022-09-03T14:44:17;100765.72;;;28.04;25.83
11648;BME280;5880;52.342;9.662;2022-09-03T14:47:26;100764.09;;;28.03;25.66
11648;BME280;5880;52.342;9.662;2022-09-03T14:50:36;100764.44;;;28.02;25.66
11648;BME280;5880;52.342;9.662;2022-09-03T14:57:06;100772.53;;;28.03;25.58
11648;BME280;5880;52.342;9.662;2022-09-03T15:00:07;100766.91;;;28.03;25.56
11648;BME280;5880;52.342;9.662;2022-09-03T15:03:17;100759.31;;;28.04;25.69
11648;BME280;5880;52.342;9.662;2022-09-03T15:09:21;100762.34;;;27.98;25.38
11648;BME280;5880;52.342;9.662;2022-09-03T15:11:56;100761.84;;;27.96;25.15
11648;BME280;5880;52.342;9.662;2022-09-03T15:14:38;100759.53;;;27.98;25.13
11648;BME280;5880;52.342;9.662;2022-09-03T15:17:37;100762.34;;;27.98;25.28